sensor_id;sensor_type;location;lat;lon;timestamp;P1;durP1;ratioP1;P2;durP2;ratioP2
10497;SDS011;5296;51.060;13.750;2022-09-03T00:00:07;3.08;;;1.88;;
10497;SDS011;5296;51.060;13.750;2022-09-03T00:10:27;2.15;;;1.98;;
10497;SDS011;5296;51.060;13.750;2022-09-03T00:15:32;2.05;;;1.95;;
10497;SDS011;5296;51.060;13.750;2022-09-03T00:20:39;2.53;;;1.65;;
10497;SDS011;5296;51.060;13.750;2022-09-03T00:25:54;2.88;;;2.00;;
10497;SDS011;5296;51.060;13.750;2022-09-03T00:31:04;2.45;;;1.70;;
10497;SDS011;5296;51.060;13.750;2022-09-03T00:36:40;3.90;;;1.67;;
10497;SDS011;5296;51.060;13.750;2022-09-03T01:13:53;3.25;;;1.88;;
10497;SDS011;5296;51.060;13.750;2022-09-03T01:19:02;2.88;;;1.70;;
10497;SDS011;5296;51.060;13.750;2022-09-03T01:30:02;2.38;;;1.75;;
10497;SDS011;5296;51.060;13.750;2022-09-03T01:35:36;2.10;;;1.65;;
10497;SDS011;5296;51.060;13.750;2022-09-03T01:40:50;2.92;;;1.83;;
10497;SDS011;5296;51.060;13.750;2022-09-03T01:46:36;2.33;;;1.85;;
10497;SDS011;5296;51.060;13.750;2022-09-03T01:51:40;3.70;;;1.95;;
10497;SDS011;5296;51.060;13.750;2022-09-03T02:02:09;4.63;;;1.80;;
10497;SDS011;5296;51.060;13.750;2022-09-03T02:07:21;1.98;;;1.75;;
10497;SDS011;5296;51.060;13.750;2022-09-03T02:12:24;2.95;;;1.77;;
10497;SDS011;5296;51.060;13.750;2022-09-03T02:17:26;3.10;;;1.98;;
10497;SDS011;5296;51.060;13.750;2022-09-03T02:22:27;2.97;;;1.80;;
10497;SDS011;5296;51.060;13.750;2022-09-03T02:27:29;2.92;;;1.70;;
10497;SDS011;5296;51.060;13.750;2022-09-03T02:32:31;2.20;;;1.80;;
10497;SDS011;5296;51.060;13.750;2022-09-03T02:37:33;1.75;;;1.50;;
10497;SDS011;5296;51.060;13.750;2022-09-03T02:42:35;2.15;;;1.95;;
10497;SDS011;5296;51.060;13.750;2022-09-03T02:47:37;2.35;;;1.80;;
10497;SDS011;5296;51.060;13.750;2022-09-03T02:52:39;3.67;;;1.70;;
10497;SDS011;5296;51.060;13.750;2022-09-03T02:57:42;2.58;;;1.73;;
10497;SDS011;5296;51.060;13.750;2022-09-03T03:02:44;1.75;;;1.65;;
10497;SDS011;5296;51.060;13.750;2022-09-03T03:07:47;2.13;;;1.90;;
10497;SDS011;5296;51.060;13.750;2022-09-03T03:12:48;2.92;;;1.73;;
10497;SDS011;5296;51.060;13.750;2022-09-03T03:17:50;2.35;;;1.73;;
10497;SDS011;5296;51.060;13.750;2022-09-03T03:22:52;5.55;;;2.30;;
10497;SDS011;5296;51.060;13.750;2022-09-03T03:27:54;4.53;;;1.83;;
10497;SDS011;5296;51.060;13.750;2022-09-03T03:32:57;2.38;;;1.73;;
10497;SDS011;5296;51.060;13.750;2022-09-03T03:37:58;2.28;;;1.83;;
10497;SDS011;5296;51.060;13.750;2022-09-03T03:43:00;1.70;;;1.60;;
10497;SDS011;5296;51.060;13.750;2022-09-03T03:48:02;2.25;;;1.80;;
10497;SDS011;5296;51.060;13.750;2022-09-03T03:53:03;2.25;;;1.90;;
10497;SDS011;5296;51.060;13.750;2022-09-03T03:58:05;4.03;;;2.00;;
10497;SDS011;5296;51.060;13.750;2022-09-03T04:03:07;2.22;;;1.90;;
10497;SDS011;5296;51.060;13.750;2022-09-03T04:08:08;3.00;;;1.88;;
10497;SDS011;5296;51.060;13.750;2022-09-03T04:13:10;3.13;;;1.90;;
10497;SDS011;5296;51.060;13.750;2022-09-03T04:18:11;2.55;;;2.35;;
10497;SDS011;5296;51.060;13.750;2022-09-03T04:23:13;4.78;;;1.92;;
10497;SDS011;5296;51.060;13.750;2022-09-03T04:28:15;4.47;;;2.05;;
10497;SDS011;5296;51.060;13.750;2022-09-03T04:33:16;2.08;;;1.92;;
10497;SDS011;5296;51.060;13.750;2022-09-03T04:38:18;4.28;;;2.05;;
10497;SDS011;5296;51.060;13.750;2022-09-03T04:43:20;2.22;;;1.77;;
10497;SDS011;5296;51.060;13.750;2022-09-03T04:48:21;2.42;;;2.05;;
10497;SDS011;5296;51.060;13.750;2022-09-03T04:53:23;2.45;;;2.22;;
10497;SDS011;5296;51.060;13.750;2022-09-03T04:58:25;3.22;;;1.80;;
10497;SDS011;5296;51.060;13.750;2022-09-03T05:03:26;2.10;;;1.90;;
10497;SDS011;5296;51.060;13.750;2022-09-03T05:08:29;2.20;;;2.00;;
10497;SDS011;5296;51.060;13.750;2022-09-03T05:13:31;3.60;;;2.15;;
10497;SDS011;5296;51.060;13.750;2022-09-03T05:18:34;2.90;;;2.20;;
10497;SDS011;5296;51.060;13.750;2022-09-03T05:23:39;2.35;;;2.15;;
10497;SDS011;5296;51.060;13.750;2022-09-03T05:28:43;4.00;;;2.00;;
10497;SDS011;5296;51.060;13.750;2022-09-03T05:33:46;2.83;;;2.22;;
10497;SDS011;5296;51.060;13.750;2022-09-03T05:38:50;2.95;;;2.10;;
10497;SDS011;5296;51.060;13.750;2022-09-03T05:43:54;2.55;;;2.10;;
10497;SDS011;5296;51.060;13.750;2022-09-03T05:49:05;5.25;;;2.45;;
10497;SDS011;5296;51.060;13.750;2022-09-03T05:54:13;2.47;;;2.28;;
10497;SDS011;5296;51.060;13.750;2022-09-03T05:59:14;2.28;;;1.80;;
10497;SDS011;5296;51.060;13.750;2022-09-03T06:04:16;2.38;;;2.10;;
10497;SDS011;5296;51.060;13.750;2022-09-03T06:09:19;2.83;;;2.13;;
10497;SDS011;5296;51.060;13.750;2022-09-03T06:14:23;2.28;;;1.95;;
10497;SDS011;5296;51.060;13.750;2022-09-03T06:19:25;2.20;;;2.00;;
10497;SDS011;5296;51.060;13.750;2022-09-03T06:24:27;2.65;;;2.00;;
10497;SDS011;5296;51.060;13.750;2022-09-03T06:29:30;3.42;;;2.03;;
10497;SDS011;5296;51.060;13.750;2022-09-03T06:34:31;3.08;;;2.05;;
10497;SDS011;5296;51.060;13.750;2022-09-03T06:39:33;2.78;;;1.90;;
10497;SDS011;5296;51.060;13.750;2022-09-03T06:44:34;2.38;;;2.08;;
10497;SDS011;5296;51.060;13.750;2022-09-03T06:49:36;2.38;;;1.88;;
10497;SDS011;5296;51.060;13.750;2022-09-03T06:54:38;3.05;;;2.00;;
10497;SDS011;5296;51.060;13.750;2022-09-03T06:59:41;2.55;;;1.95;;
10497;SDS011;5296;51.060;13.750;2022-09-03T07:04:44;1.95;;;1.77;;
10497;SDS011;5296;51.060;13.750;2022-09-03T07:09:48;2.50;;;1.90;;
10497;SDS011;5296;51.060;13.750;2022-09-03T07:14:50;3.35;;;2.08;;
10497;SDS011;5296;51.060;13.750;2022-09-03T07:19:53;2.50;;;1.80;;
10497;SDS011;5296;51.060;13.750;2022-09-03T07:24:55;2.25;;;1.80;;
10497;SDS011;5296;51.060;13.750;2022-09-03T07:29:57;2.03;;;1.80;;
10497;SDS011;5296;51.060;13.750;2022-09-03T07:34:58;2.95;;;2.00;;
10497;SDS011;5296;51.060;13.750;2022-09-03T07:40:00;1.95;;;1.70;;
10497;SDS011;5296;51.060;13.750;2022-09-03T07:45:06;3.00;;;1.60;;
10497;SDS011;5296;51.060;13.750;2022-09-03T07:50:13;4.03;;;2.08;;
10497;SDS011;5296;51.060;13.750;2022-09-03T07:55:15;2.75;;;1.60;;
10497;SDS011;5296;51.060;13.750;2022-09-03T08:00:17;1.85;;;1.60;;
10497;SDS011;5296;51.060;13.750;2022-09-03T08:05:18;2.17;;;1.77;;
10497;SDS011;5296;51.060;13.750;2022-09-03T08:10:20;3.42;;;1.50;;
10497;SDS011;5296;51.060;13.750;2022-09-03T08:15:23;2.33;;;1.77;;
10497;SDS011;5296;51.060;13.750;2022-09-03T08:20:26;2.03;;;1.52;;
10497;SDS011;5296;51.060;13.750;2022-09-03T08:25:28;3.58;;;1.90;;
10497;SDS011;5296;51.060;13.750;2022-09-03T08:30:30;4.30;;;2.00;;
10497;SDS011;5296;51.060;13.750;2022-09-03T08:35:31;12.18;;;3.45;;
10497;SDS011;5296;51.060;13.750;2022-09-03T08:40:35;3.50;;;2.30;;
10497;SDS011;5296;51.060;13.750;2022-09-03T08:45:38;4.30;;;2.05;;
10497;SDS011;5296;51.060;13.750;2022-09-03T08:50:40;2.20;;;1.73;;
10497;SDS011;5296;51.060;13.750;2022-09-03T08:55:52;1.58;;;1.48;;
10497;SDS011;5296;51.060;13.750;2022-09-03T09:00:56;3.03;;;2.00;;
10497;SDS011;5296;51.060;13.750;2022-09-03T09:22:54;2.35;;;1.80;;
10497;SDS011;5296;51.060;13.750;2022-09-03T09:28:03;1.88;;;1.60;;
10497;SDS011;5296;51.060;13.750;2022-09-03T09:33:14;3.03;;;1.77;;
10497;SDS011;5296;51.060;13.750;2022-09-03T09:38:26;2.97;;;1.73;;
10497;SDS011;5296;51.060;13.750;2022-09-03T09:43:32;2.03;;;1.73;;
10497;SDS011;5296;51.060;13.750;2022-09-03T09:48:36;3.42;;;1.75;;
10497;SDS011;5296;51.060;13.750;2022-09-03T09:53:39;2.58;;;1.50;;
10497;SDS011;5296;51.060;13.750;2022-09-03T09:58:41;3.03;;;1.70;;
10497;SDS011;5296;51.060;13.750;2022-09-03T10:03:54;2.20;;;1.70;;
10497;SDS011;5296;51.060;13.750;2022-09-03T10:09:07;2.95;;;1.70;;
10497;SDS011;5296;51.060;13.750;2022-09-03T10:14:13;3.42;;;1.80;;
10497;SDS011;5296;51.060;13.750;2022-09-03T10:19:19;3.65;;;1.70;;
10497;SDS011;5296;51.060;13.750;2022-09-03T10:29:45;2.88;;;1.70;;
10497;SDS011;5296;51.060;13.750;2022-09-03T10:40:13;2.38;;;1.75;;
10497;SDS011;5296;51.060;13.750;2022-09-03T10:45:28;1.85;;;1.67;;
10497;SDS011;5296;51.060;13.750;2022-09-03T11:02:18;3.47;;;1.63;;
10497;SDS011;5296;51.060;13.750;2022-09-03T11:07:36;3.83;;;1.70;;
10497;SDS011;5296;51.060;13.750;2022-09-03T11:12:43;4.82;;;1.98;;
10497;SDS011;5296;51.060;13.750;2022-09-03T11:17:54;2.10;;;1.90;;
10497;SDS011;5296;51.060;13.750;2022-09-03T11:23:00;4.97;;;1.85;;
10497;SDS011;5296;51.060;13.750;2022-09-03T11:33:28;3.08;;;2.10;;
10497;SDS011;5296;51.060;13.750;2022-09-03T11:38:33;1.70;;;1.60;;
10497;SDS011;5296;51.060;13.750;2022-09-03T11:43:35;1.73;;;1.63;;
10497;SDS011;5296;51.060;13.750;2022-09-03T11:48:47;2.50;;;1.70;;
10497;SDS011;5296;51.060;13.750;2022-09-03T11:53:54;3.75;;;2.05;;
10497;SDS011;5296;51.060;13.750;2022-09-03T12:04:14;3.45;;;1.55;;
10497;SDS011;5296;51.060;13.750;2022-09-03T12:14:51;2.75;;;1.52;;
10497;SDS011;5296;51.060;13.750;2022-09-03T12:20:11;2.13;;;1.60;;
10497;SDS011;5296;51.060;13.750;2022-09-03T12:25:14;1.98;;;1.77;;
10497;SDS011;5296;51.060;13.750;2022-09-03T12:30:17;1.90;;;1.70;;
10497;SDS011;5296;51.060;13.750;2022-09-03T12:35:22;2.38;;;1.70;;
10497;SDS011;5296;51.060;13.750;2022-09-03T12:40:44;1.80;;;1.70;;
10497;SDS011;5296;51.060;13.750;2022-09-03T12:46:12;1.90;;;1.70;;
10497;SDS011;5296;51.060;13.750;2022-09-03T12:51:15;3.50;;;1.77;;
10497;SDS011;5296;51.060;13.750;2022-09-03T12:56:36;2.80;;;1.65;;
10497;SDS011;5296;51.060;13.750;2022-09-03T13:01:49;2.20;;;1.63;;
10497;SDS011;5296;51.060;13.750;2022-09-03T13:07:04;3.38;;;1.83;;
10497;SDS011;5296;51.060;13.750;2022-09-03T13:17:51;2.28;;;1.80;;
10497;SDS011;5296;51.060;13.750;2022-09-03T13:22:59;3.03;;;1.60;;
10497;SDS011;5296;51.060;13.750;2022-09-03T13:33:50;4.85;;;1.95;;
10497;SDS011;5296;51.060;13.750;2022-09-03T13:38:52;4.38;;;1.80;;
10497;SDS011;5296;51.060;13.750;2022-09-03T13:54:41;3.35;;;1.88;;
10497;SDS011;5296;51.060;13.750;2022-09-03T14:15:46;2.00;;;1.80;;
10497;SDS011;5296;51.060;13.750;2022-09-03T14:25:55;6.95;;;2.00;;
10497;SDS011;5296;51.060;13.750;2022-09-03T14:36:36;2.08;;;1.80;;
10497;SDS011;5296;51.060;13.750;2022-09-03T14:41:52;3.17;;;1.75;;
10497;SDS011;5296;51.060;13.750;2022-09-03T14:47:08;3.63;;;1.63;;
10497;SDS011;5296;51.060;13.750;2022-09-03T14:58:10;2.53;;;1.65;;
10497;SDS011;5296;51.060;13.750;2022-09-03T15:14:13;2.75;;;1.83;;
10497;SDS011;5296;51.060;13.750;2022-09-03T15:30:09;2.88;;;1.42;;
10497;SDS011;5296;51.060;13.750;2022-09-03T15:40:30;1.50;;;1.40;;
10497;SDS011;5296;51.060;13.750;2022-09-03T15:45:36;2.15;;;1.70;;
10497;SDS011;5296;51.060;13.750;2022-09-03T16:01:43;3.10;;;1.80;;
10497;SDS011;5296;51.060;13.750;2022-09-03T16:06:54;2.63;;;1.80;;
10497;SDS011;5296;51.060;13.750;2022-09-03T16:12:13;1.73;;;1.63;;
10497;SDS011;5296;51.060;13.750;2022-09-03T16:23:17;1.77;;;1.67;;
10497;SDS011;5296;51.060;13.750;2022-09-03T16:28:06;2.15;;;1.70;;
10497;SDS011;5296;51.060;13.750;2022-09-03T16:33:31;2.40;;;2.05;;
10497;SDS011;5296;51.060;13.750;2022-09-03T16:45:02;2.83;;;1.67;;
10497;SDS011;5296;51.060;13.750;2022-09-03T16:50:08;3.60;;;2.03;;
10497;SDS011;5296;51.060;13.750;2022-09-03T16:55:22;2.45;;;1.85;;
10497;SDS011;5296;51.060;13.750;2022-09-03T17:00:27;2.90;;;2.00;;
10497;SDS011;5296;51.060;13.750;2022-09-03T17:33:41;2.65;;;2.00;;
10497;SDS011;5296;51.060;13.750;2022-09-03T17:49:31;2.95;;;2.13;;
10497;SDS011;5296;51.060;13.750;2022-09-03T18:05:15;2.50;;;2.30;;
10497;SDS011;5296;51.060;13.750;2022-09-03T18:21:23;3.55;;;3.03;;
10497;SDS011;5296;51.060;13.750;2022-09-03T18:26:46;2.80;;;2.60;;
10497;SDS011;5296;51.060;13.750;2022-09-03T18:32:11;4.65;;;3.10;;
10497;SDS011;5296;51.060;13.750;2022-09-03T18:37:32;6.78;;;3.75;;
10497;SDS011;5296;51.060;13.750;2022-09-03T18:48:35;5.00;;;3.13;;
10497;SDS011;5296;51.060;13.750;2022-09-03T19:05:24;3.90;;;3.50;;
10497;SDS011;5296;51.060;13.750;2022-09-03T19:11:05;3.58;;;3.28;;
10497;SDS011;5296;51.060;13.750;2022-09-03T19:16:53;4.03;;;3.33;;
10497;SDS011;5296;51.060;13.750;2022-09-03T19:22:32;7.13;;;3.88;;
10497;SDS011;5296;51.060;13.750;2022-09-03T19:33:27;3.95;;;3.65;;
10497;SDS011;5296;51.060;13.750;2022-09-03T19:39:08;4.18;;;3.70;;
10497;SDS011;5296;51.060;13.750;2022-09-03T19:50:21;3.88;;;3.50;;
10497;SDS011;5296;51.060;13.750;2022-09-03T19:55:47;3.90;;;3.50;;
10497;SDS011;5296;51.060;13.750;2022-09-03T20:01:12;5.22;;;3.40;;
10497;SDS011;5296;51.060;13.750;2022-09-03T20:06:32;4.10;;;3.70;;
10497;SDS011;5296;51.060;13.750;2022-09-03T20:11:54;6.55;;;3.53;;
10497;SDS011;5296;51.060;13.750;2022-09-03T20:49:49;4.18;;;3.75;;
10497;SDS011;5296;51.060;13.750;2022-09-03T20:55:11;4.38;;;3.90;;
10497;SDS011;5296;51.060;13.750;2022-09-03T21:00:16;6.63;;;3.92;;
10497;SDS011;5296;51.060;13.750;2022-09-03T21:05:21;6.30;;;4.10;;
10497;SDS011;5296;51.060;13.750;2022-09-03T21:26:23;5.70;;;4.28;;
10497;SDS011;5296;51.060;13.750;2022-09-03T21:32:10;6.47;;;4.53;;
10497;SDS011;5296;51.060;13.750;2022-09-03T21:36:54;5.30;;;4.80;;
10497;SDS011;5296;51.060;13.750;2022-09-03T21:41:59;5.85;;;5.07;;
10497;SDS011;5296;51.060;13.750;2022-09-03T21:47:05;5.47;;;4.97;;
10497;SDS011;5296;51.060;13.750;2022-09-03T21:52:11;6.15;;;4.90;;
10497;SDS011;5296;51.060;13.750;2022-09-03T21:57:19;5.88;;;4.95;;
10497;SDS011;5296;51.060;13.750;2022-09-03T22:02:30;6.95;;;5.30;;
10497;SDS011;5296;51.060;13.750;2022-09-03T22:18:27;6.30;;;5.05;;
10497;SDS011;5296;51.060;13.750;2022-09-03T22:23:39;5.32;;;4.82;;
10497;SDS011;5296;51.060;13.750;2022-09-03T22:28:46;6.70;;;5.25;;
10497;SDS011;5296;51.060;13.750;2022-09-03T22:39:32;5.50;;;4.97;;
10497;SDS011;5296;51.060;13.750;2022-09-03T22:50:27;5.20;;;4.70;;
10497;SDS011;5296;51.060;13.750;2022-09-03T22:55:29;5.82;;;4.80;;
10497;SDS011;5296;51.060;13.750;2022-09-03T23:00:33;6.53;;;4.80;;
10497;SDS011;5296;51.060;13.750;2022-09-03T23:05:49;5.75;;;5.22;;
10497;SDS011;5296;51.060;13.750;2022-09-03T23:11:04;6.75;;;5.18;;
10497;SDS011;5296;51.060;13.750;2022-09-03T23:21:22;7.35;;;5.03;;
10497;SDS011;5296;51.060;13.750;2022-09-03T23:26:46;5.85;;;5.25;;
10497;SDS011;5296;51.060;13.750;2022-09-03T23:31:49;6.13;;;4.83;;
